Time;durP1;ratioP1;P1;durP2;ratioP2;P2;SDS_P1;SDS_P2;PMS_P1;PMS_P2;Temp;Humidity;BMP_temperature;BMP_pressure;BME280_temperature;BME280_humidity;BME280_pressure;Samples;Min_cycle;Max_cycle;Signal;HPM_P1;HPM_P2
2022/04/28 00:00:44;;;;;;;26.67;19.38;;;;;;;12.47;100.00;100727.91;5131793;27;20360;-72
2022/04/28 00:03:10;;;;;;;23.17;17.40;;;;;;;12.48;100.00;100734.13;5108635;28;20027;-72
2022/04/28 00:05:37;;;;;;;24.92;17.85;;;;;;;12.48;100.00;100724.22;5124743;27;20039;-72
2022/04/28 00:08:03;;;;;;;23.52;17.50;;;;;;;12.52;100.00;100727.50;5116709;27;20590;-72
2022/04/28 00:10:28;;;;;;;26.42;20.23;;;;;;;12.54;100.00;100728.22;5111339;28;20035;-73
2022/04/28 00:12:54;;;;;;;25.88;19.95;;;;;;;12.56;100.00;100732.47;5114236;27;20072;-73
2022/04/28 00:15:19;;;;;;;24.10;19.20;;;;;;;12.58;100.00;100727.78;5111359;27;20051;-73
2022/04/28 00:17:45;;;;;;;25.10;18.77;;;;;;;12.53;100.00;100719.28;5114378;27;20031;-73
2022/04/28 00:20:11;;;;;;;22.48;17.27;;;;;;;12.54;100.00;100726.34;5124193;27;20031;-73
2022/04/28 00:22:37;;;;;;;23.38;17.55;;;;;;;12.57;100.00;100736.84;5116689;27;20494;-72
2022/04/28 00:25:03;;;;;;;24.48;17.70;;;;;;;12.59;100.00;100736.72;5119350;27;20433;-72
2022/04/28 00:27:29;;;;;;;24.60;18.15;;;;;;;12.60;100.00;100735.72;5122845;27;20528;-72
2022/04/28 00:29:55;;;;;;;21.95;17.10;;;;;;;12.63;100.00;100740.81;5121214;27;20027;-71
2022/04/28 00:32:21;;;;;;;22.17;15.93;;;;;;;12.63;100.00;100730.06;5120690;27;20072;-72
2022/04/28 00:34:49;;;;;;;22.35;16.25;;;;;;;12.62;100.00;100734.59;5119006;27;20027;-72
2022/04/28 00:37:15;;;;;;;17.10;13.13;;;;;;;12.61;100.00;100732.88;5117105;27;20027;-72
2022/04/28 00:39:41;;;;;;;15.93;12.32;;;;;;;12.61;100.00;100730.19;5120202;27;20033;-70
2022/04/28 00:42:10;;;;;;;15.43;11.77;;;;;;;12.57;100.00;100726.09;5114783;28;20484;-71
2022/04/28 00:44:36;;;;;;;14.05;11.35;;;;;;;12.59;100.00;100742.09;5106747;28;20039;-72
2022/04/28 00:47:02;;;;;;;15.75;12.15;;;;;;;12.58;100.00;100735.84;5097723;27;20072;-72
2022/04/28 00:52:11;;;;;;;15.60;11.57;;;;;;;12.62;100.00;100745.38;5123244;28;20565;-71
2022/04/28 00:54:37;;;;;;;15.18;11.10;;;;;;;12.50;100.00;100729.44;5124383;28;20738;-71
2022/04/28 00:57:03;;;;;;;14.05;10.63;;;;;;;12.66;100.00;100754.00;5115977;28;20072;-71
2022/04/28 00:59:30;;;;;;;16.83;10.85;;;;;;;12.64;100.00;100747.94;5128076;27;20084;-71
2022/04/28 01:01:56;;;;;;;11.95;10.10;;;;;;;12.54;100.00;100744.34;5116292;27;20037;-71
2022/04/28 01:04:21;;;;;;;13.05;11.05;;;;;;;12.51;100.00;100741.94;5124134;27;20534;-71
2022/04/28 01:06:47;;;;;;;13.07;10.10;;;;;;;12.55;100.00;100735.28;5113093;28;20118;-72
2022/04/28 01:09:14;;;;;;;12.55;10.32;;;;;;;12.56;100.00;100734.28;5117774;27;20055;-72
2022/04/28 01:11:40;;;;;;;13.93;10.32;;;;;;;12.67;100.00;100747.66;5114761;28;20033;-72
2022/04/28 01:14:06;;;;;;;12.02;10.10;;;;;;;12.53;100.00;100731.88;5117802;27;20337;-72
2022/04/28 01:16:32;;;;;;;13.90;10.70;;;;;;;12.59;100.00;100744.78;5117115;27;20081;-71
2022/04/28 01:18:58;;;;;;;14.02;10.25;;;;;;;12.60;100.00;100752.72;5106855;27;20505;-71
2022/04/28 01:21:24;;;;;;;10.57;9.20;;;;;;;12.59;100.00;100747.47;5144935;27;20031;-71
2022/04/28 01:23:50;;;;;;;13.50;9.75;;;;;;;12.47;100.00;100733.28;5124918;27;20070;-72
2022/04/28 01:26:16;;;;;;;13.45;9.50;;;;;;;12.40;100.00;100715.13;5113747;28;20034;-70
2022/04/28 01:28:42;;;;;;;12.05;9.18;;;;;;;12.54;100.00;100742.50;5133532;27;20019;-71
2022/04/28 01:31:07;;;;;;;11.73;8.90;;;;;;;12.43;100.00;100723.78;5126752;27;20502;-72
2022/04/28 01:33:33;;;;;;;13.93;9.70;;;;;;;12.43;100.00;100734.53;5131575;27;20027;-73
2022/04/28 01:35:59;;;;;;;11.63;9.05;;;;;;;12.43;100.00;100704.09;5114510;27;20031;-72
2022/04/28 01:38:25;;;;;;;13.27;9.77;;;;;;;12.44;100.00;100727.31;5132662;27;20034;-72
2022/04/28 01:40:50;;;;;;;10.90;9.07;;;;;;;12.32;100.00;100726.56;5126773;27;20023;-73
2022/04/28 01:43:16;;;;;;;13.50;9.75;;;;;;;12.29;100.00;100736.75;5128259;27;20019;-72
2022/04/28 01:45:42;;;;;;;12.40;9.75;;;;;;;12.24;100.00;100731.78;5128674;27;20030;-72
2022/04/28 01:48:08;;;;;;;13.43;10.73;;;;;;;12.24;100.00;100747.91;5131735;27;20312;-71
2022/04/28 01:50:34;;;;;;;13.77;11.07;;;;;;;12.19;100.00;100730.47;5127041;27;20023;-72
2022/04/28 01:55:43;;;;;;;16.10;10.85;;;;;;;12.21;100.00;100729.34;5115905;27;20042;-72
2022/04/28 01:58:08;;;;;;;13.05;9.98;;;;;;;12.18;100.00;100724.25;5113145;28;20039;-72
2022/04/28 02:00:34;;;;;;;12.75;10.55;;;;;;;12.20;100.00;100721.41;5124980;27;20030;-72
2022/04/28 02:03:00;;;;;;;11.95;9.23;;;;;;;12.22;100.00;100728.34;5133429;27;20037;-71
2022/04/28 02:05:25;;;;;;;13.25;9.95;;;;;;;12.18;100.00;100709.94;5131357;27;20023;-71
2022/04/28 02:07:51;;;;;;;11.65;9.88;;;;;;;12.20;100.00;100732.19;5119046;27;20042;-72
2022/04/28 02:10:16;;;;;;;13.27;10.60;;;;;;;12.21;100.00;100732.03;5101876;28;20027;-71
2022/04/28 02:12:42;;;;;;;15.02;10.93;;;;;;;12.14;100.00;100711.19;5117757;27;20107;-71
2022/04/28 02:15:08;;;;;;;12.75;10.40;;;;;;;12.21;100.00;100720.44;5117803;27;20051;-71
2022/04/28 02:17:36;;;;;;;11.48;9.95;;;;;;;12.28;100.00;100735.06;5096618;27;20110;-72
2022/04/28 02:20:04;;;;;;;13.75;10.80;;;;;;;12.21;100.00;100721.28;5112507;28;20035;-72
2022/04/28 02:22:29;;;;;;;13.52;10.63;;;;;;;12.24;100.00;100729.09;5112157;28;20484;-72
2022/04/28 02:24:55;;;;;;;15.05;10.80;;;;;;;12.21;100.00;100723.97;5127165;27;20034;-72
2022/04/28 02:27:21;;;;;;;12.80;10.05;;;;;;;12.18;100.00;100704.56;5129895;27;20019;-72
2022/04/28 02:29:46;;;;;;;13.90;11.27;;;;;;;12.22;100.00;100722.16;5125454;27;20039;-72
2022/04/28 02:32:11;;;;;;;15.38;11.43;;;;;;;12.22;100.00;100714.09;5116881;27;20027;-72
2022/04/28 02:34:37;;;;;;;17.60;11.82;;;;;;;12.24;100.00;100712.94;5124553;27;20019;-72
2022/04/28 02:37:03;;;;;;;12.57;10.40;;;;;;;12.26;100.00;100720.88;5114061;27;20036;-71
2022/04/28 02:39:28;;;;;;;15.43;11.60;;;;;;;12.20;100.00;100718.72;5122773;27;20024;-71
2022/04/28 02:41:53;;;;;;;13.50;11.45;;;;;;;12.16;100.00;100710.06;5130779;27;20039;-72
2022/04/28 02:44:19;;;;;;;13.43;10.68;;;;;;;12.00;100.00;100684.69;5122638;27;20035;-72
2022/04/28 02:46:45;;;;;;;15.40;11.80;;;;;;;12.16;100.00;100717.31;5131270;27;20027;-71
2022/04/28 02:49:15;;;;;;;16.60;12.80;;;;;;;12.03;100.00;100703.25;5112628;28;20016;-71
2022/04/28 02:51:42;;;;;;;16.65;12.20;;;;;;;12.09;100.00;100716.97;5103454;27;20066;-71
2022/04/28 02:54:09;;;;;;;18.30;12.75;;;;;;;12.13;100.00;100720.25;5125295;27;20502;-71
2022/04/28 02:56:34;;;;;;;16.88;12.73;;;;;;;11.99;100.00;100693.75;5114440;27;20031;-71
2022/04/28 02:59:00;;;;;;;15.68;12.10;;;;;;;12.10;100.00;100712.47;5131460;27;20029;-71
2022/04/28 03:01:26;;;;;;;15.25;11.93;;;;;;;12.10;100.00;100712.47;5123315;27;20023;-71
2022/04/28 03:03:53;;;;;;;15.85;12.48;;;;;;;12.15;100.00;100710.25;5094393;28;20032;-72
2022/04/28 03:12:04;;;;;;;16.92;12.82;;;;;;;12.10;100.00;100715.16;5032136;28;20501;-72
2022/04/28 03:14:30;;;;;;;16.17;12.88;;;;;;;12.06;100.00;100719.09;5104348;27;20043;-72
2022/04/28 03:16:55;;;;;;;17.50;13.30;;;;;;;12.04;100.00;100726.44;5127491;27;20214;-72
2022/04/28 03:19:21;;;;;;;16.55;11.93;;;;;;;12.03;100.00;100727.44;5113798;27;20023;-71
2022/04/28 03:21:46;;;;;;;17.05;13.23;;;;;;;12.02;100.00;100721.19;5102894;27;20022;-71
2022/04/28 03:24:11;;;;;;;19.05;13.75;;;;;;;11.89;100.00;100706.25;5118515;27;20026;-72
2022/04/28 03:26:39;;;;;;;19.60;13.93;;;;;;;12.05;100.00;100728.13;5117684;27;20620;-71
2022/04/28 03:29:04;;;;;;;17.20;12.73;;;;;;;12.04;100.00;100731.81;5122220;27;20049;-72
2022/04/28 03:31:30;;;;;;;18.08;12.45;;;;;;;12.00;100.00;100731.25;5111724;28;20076;-72
2022/04/28 03:33:55;;;;;;;18.58;13.63;;;;;;;11.95;100.00;100721.84;5115277;27;20051;-70
2022/04/28 03:39:05;;;;;;;17.90;13.38;;;;;;;12.04;100.00;100737.19;5111845;28;20217;-71
2022/04/28 03:41:30;;;;;;;18.63;13.80;;;;;;;12.05;100.00;100738.88;5119868;27;20114;-72
2022/04/28 03:43:56;;;;;;;19.30;14.00;;;;;;;11.97;100.00;100730.66;5114358;27;20016;-73
2022/04/28 03:46:21;;;;;;;18.33;13.32;;;;;;;12.05;100.00;100744.25;5132082;27;20043;-71
2022/04/28 03:48:48;;;;;;;17.38;13.43;;;;;;;12.03;100.00;100743.56;5132014;27;20023;-71
2022/04/28 03:51:14;;;;;;;21.25;14.30;;;;;;;12.00;100.00;100747.38;5131922;27;20059;-72
2022/04/28 03:53:39;;;;;;;17.48;13.43;;;;;;;11.98;100.00;100745.78;5111564;28;20055;-72
2022/04/28 03:56:05;;;;;;;20.27;13.73;;;;;;;11.95;100.00;100744.22;5119763;27;20016;-71
2022/04/28 03:58:31;;;;;;;17.02;12.10;;;;;;;11.87;100.00;100735.13;5111540;27;20031;-72
2022/04/28 04:00:56;;;;;;;19.77;14.05;;;;;;;11.94;100.00;100750.59;5113740;27;20030;-72
2022/04/28 04:03:22;;;;;;;18.77;13.52;;;;;;;11.90;100.00;100749.13;5119422;27;20051;-72
2022/04/28 04:05:48;;;;;;;17.40;13.23;;;;;;;11.87;100.00;100740.50;5109249;28;20031;-72
2022/04/28 04:08:14;;;;;;;16.13;13.10;;;;;;;11.93;100.00;100758.78;5130045;27;20027;-72
2022/04/28 04:10:39;;;;;;;17.48;12.52;;;;;;;11.90;100.00;100759.88;5123605;27;20440;-70
2022/04/28 04:13:05;;;;;;;16.83;13.63;;;;;;;11.89;100.00;100749.25;5131400;27;20043;-71
2022/04/28 04:15:32;;;;;;;15.52;12.73;;;;;;;11.85;100.00;100758.59;5113011;27;20052;-71
2022/04/28 04:17:57;;;;;;;17.38;13.02;;;;;;;11.92;100.00;100760.63;5118251;27;20026;-72
2022/04/28 04:20:25;;;;;;;17.27;13.23;;;;;;;11.83;100.00;100741.75;5111282;28;20051;-72
2022/04/28 04:22:52;;;;;;;18.83;13.02;;;;;;;11.96;100.00;100777.34;5111169;28;20036;-72
2022/04/28 04:25:18;;;;;;;18.75;13.75;;;;;;;11.89;100.00;100768.94;5092789;28;20554;-72
2022/04/28 04:27:44;;;;;;;17.08;13.10;;;;;;;11.92;100.00;100766.00;5110903;28;20111;-71
2022/04/28 04:32:53;;;;;;;16.70;12.95;;;;;;;11.77;100.00;100745.78;5110709;28;20030;-71
2022/04/28 04:35:19;;;;;;;17.25;12.60;;;;;;;11.90;100.00;100765.25;5111098;28;20039;-72
2022/04/28 04:37:44;;;;;;;17.17;13.27;;;;;;;11.89;100.00;100760.00;5109261;28;20039;-73
2022/04/28 04:40:11;;;;;;;20.00;13.63;;;;;;;11.93;100.00;100770.38;5109061;28;20051;-72
2022/04/28 04:42:37;;;;;;;17.90;12.27;;;;;;;11.86;100.00;100755.75;5109195;28;20067;-71
2022/04/28 04:45:03;;;;;;;18.80;13.45;;;;;;;11.92;100.00;100765.13;5109329;28;20445;-72
2022/04/28 04:47:28;;;;;;;18.65;13.85;;;;;;;11.92;100.00;100763.31;5109114;28;20099;-71
2022/04/28 04:49:53;;;;;;;15.68;12.85;;;;;;;11.92;100.00;100768.69;5090818;28;20061;-72
2022/04/28 04:52:19;;;;;;;18.08;13.40;;;;;;;11.92;100.00;100766.00;5109193;28;20042;-72
2022/04/28 04:54:44;;;;;;;27.60;16.65;;;;;;;11.84;100.00;100756.88;5108751;28;20028;-70
2022/04/28 04:57:10;;;;;;;19.23;14.55;;;;;;;11.92;100.00;100767.81;5109104;28;20097;-72
2022/04/28 04:59:35;;;;;;;17.52;13.70;;;;;;;11.91;100.00;100761.59;5108810;28;20035;-72
2022/04/28 05:02:00;;;;;;;18.77;13.40;;;;;;;11.90;100.00;100759.06;5108441;28;20027;-73
2022/04/28 05:04:26;;;;;;;20.90;13.43;;;;;;;11.93;100.00;100774.91;5104457;28;20030;-72
2022/04/28 05:06:52;;;;;;;16.00;12.40;;;;;;;11.98;100.00;100772.66;5090582;28;20080;-71
2022/04/28 05:09:17;;;;;;;19.73;13.77;;;;;;;11.96;100.00;100774.66;5108182;28;20028;-71
2022/04/28 05:11:42;;;;;;;20.60;13.63;;;;;;;11.90;100.00;100767.13;5109026;28;20035;-72
2022/04/28 05:14:08;;;;;;;17.75;13.43;;;;;;;12.02;100.00;100784.88;5108852;28;20073;-71
2022/04/28 05:16:33;;;;;;;19.08;13.65;;;;;;;11.84;100.00;100757.75;5108835;28;20058;-70
2022/04/28 05:18:59;;;;;;;17.60;13.32;;;;;;;11.94;100.00;100761.34;5108628;28;20051;-71
2022/04/28 05:21:24;;;;;;;19.17;13.38;;;;;;;11.99;100.00;100774.41;5108806;28;20483;-72
2022/04/28 05:23:50;;;;;;;17.33;12.77;;;;;;;12.00;100.00;100781.47;5108667;28;20246;-72
2022/04/28 05:26:15;;;;;;;18.33;12.65;;;;;;;12.07;100.00;100791.56;5108691;28;20479;-72
2022/04/28 05:28:40;;;;;;;16.88;13.75;;;;;;;12.09;100.00;100791.44;5108809;28;20031;-72
2022/04/28 05:31:06;;;;;;;17.80;13.85;;;;;;;12.11;100.00;100795.69;5109108;28;20026;-71
2022/04/28 05:33:31;;;;;;;20.77;13.80;;;;;;;12.09;100.00;100791.44;5090370;28;20027;-72
2022/04/28 05:35:58;;;;;;;18.58;12.95;;;;;;;12.10;100.00;100799.38;5108957;28;20022;-72
2022/04/28 05:38:23;;;;;;;16.98;12.98;;;;;;;12.04;100.00;100788.28;5090113;28;20518;-72
2022/04/28 05:40:49;;;;;;;18.45;12.93;;;;;;;12.06;100.00;100789.00;5108857;28;20032;-70
2022/04/28 05:45:59;;;;;;;17.13;12.93;;;;;;;12.14;100.00;100805.31;5111715;28;20026;-72
2022/04/28 05:48:24;;;;;;;16.23;12.27;;;;;;;12.06;100.00;100797.91;5112434;28;20387;-72
2022/04/28 05:50:50;;;;;;;15.98;13.32;;;;;;;12.00;100.00;100792.22;5094307;28;20034;-72
2022/04/28 05:53:16;;;;;;;16.38;12.70;;;;;;;12.03;100.00;100797.34;5112276;28;20432;-72
2022/04/28 05:55:41;;;;;;;18.27;13.32;;;;;;;12.05;100.00;100801.59;5112320;28;20116;-70
2022/04/28 05:58:07;;;;;;;17.85;13.50;;;;;;;12.13;100.00;100801.78;5112147;28;20107;-72
2022/04/28 06:00:34;;;;;;;16.80;12.60;;;;;;;12.12;100.00;100800.06;5112252;28;20028;-72
2022/04/28 06:03:00;;;;;;;17.58;13.27;;;;;;;12.12;100.00;100800.06;5112197;28;20027;-72
2022/04/28 06:05:26;;;;;;;17.38;13.18;;;;;;;12.05;100.00;100790.84;5111732;28;20024;-71
2022/04/28 06:07:52;;;;;;;15.18;12.02;;;;;;;12.09;100.00;100796.81;5112188;28;20399;-71
2022/04/28 06:10:18;;;;;;;15.50;12.50;;;;;;;11.94;100.00;100779.31;5091697;28;20019;-72
2022/04/28 06:12:43;;;;;;;18.10;12.82;;;;;;;12.06;100.00;100795.22;5110863;28;20031;-72
2022/04/28 06:15:11;;;;;;;18.67;13.70;;;;;;;12.02;100.00;100799.16;5110865;28;20395;-72
2022/04/28 06:17:37;;;;;;;17.27;13.18;;;;;;;12.09;100.00;100807.56;5111717;28;20082;-70
2022/04/28 06:20:04;;;;;;;21.35;15.10;;;;;;;12.08;100.00;100813.91;5093504;28;20032;-71
2022/04/28 06:22:29;;;;;;;22.38;13.35;;;;;;;12.07;100.00;100798.75;5111685;28;20028;-71
2022/04/28 06:24:55;;;;;;;16.30;12.65;;;;;;;12.10;100.00;100809.25;5111657;28;20566;-70
2022/04/28 06:27:22;;;;;;;14.93;11.98;;;;;;;12.11;100.00;100808.25;5111854;28;20031;-70
2022/04/28 06:29:49;;;;;;;19.80;13.32;;;;;;;12.09;100.00;100804.88;5111791;28;20051;-71
2022/04/28 06:32:18;;;;;;;19.02;13.55;;;;;;;12.15;100.00;100821.31;5111975;28;20027;-71
2022/04/28 06:34:45;;;;;;;17.75;13.20;;;;;;;12.11;100.00;100809.13;5111551;28;20510;-70
2022/04/28 06:37:10;;;;;;;19.73;13.55;;;;;;;12.14;100.00;100808.00;5111706;28;20024;-71
2022/04/28 06:39:36;;;;;;;18.38;13.40;;;;;;;12.18;100.00;100818.38;5093289;28;20046;-71
2022/04/28 06:42:03;;;;;;;17.33;13.20;;;;;;;12.16;100.00;100800.66;5111830;28;20258;-70
2022/04/28 06:44:28;;;;;;;19.10;13.48;;;;;;;12.26;100.00;100826.63;5111524;28;20031;-70
2022/04/28 06:46:53;;;;;;;19.80;14.10;;;;;;;12.26;100.00;100825.78;5111621;28;20118;-71
2022/04/28 06:49:19;;;;;;;17.50;13.45;;;;;;;12.27;100.00;100828.31;5111122;28;20088;-71
2022/04/28 06:51:44;;;;;;;18.27;13.85;;;;;;;12.28;100.00;100821.97;5111452;28;20039;-71
2022/04/28 06:54:10;;;;;;;16.30;12.38;;;;;;;12.28;100.00;100818.44;5111287;28;20015;-70
2022/04/28 06:56:35;;;;;;;19.20;13.27;;;;;;;12.31;100.00;100823.53;5091650;28;20090;-71
2022/04/28 06:59:01;;;;;;;17.85;13.65;;;;;;;12.29;100.00;100823.66;5093001;28;20034;-71
2022/04/28 07:01:26;;;;;;;18.75;14.10;;;;;;;12.20;100.00;100812.84;5093056;28;20098;-70
2022/04/28 07:03:52;;;;;;;17.00;12.38;;;;;;;12.27;100.00;100820.25;5092783;28;20028;-72
2022/04/28 07:06:17;;;;;;;16.77;13.10;;;;;;;12.31;100.00;100835.13;5111146;28;20044;-72
2022/04/28 07:08:43;;;;;;;19.10;12.68;;;;;;;12.30;100.00;100832.59;5092643;28;20019;-70
2022/04/28 07:11:09;;;;;;;19.83;13.27;;;;;;;12.30;100.00;100829.91;5111153;28;20478;-71
2022/04/28 07:13:38;;;;;;;16.67;12.05;;;;;;;12.19;100.00;100814.69;5092642;28;20054;-70
2022/04/28 07:16:04;;;;;;;15.80;12.55;;;;;;;12.39;100.00;100842.56;5092612;28;20044;-71
2022/04/28 07:18:30;;;;;;;17.25;12.75;;;;;;;12.33;100.00;100827.81;5110596;28;20101;-70
2022/04/28 07:20:58;;;;;;;17.13;13.13;;;;;;;12.42;100.00;100842.28;5092471;28;20024;-70
2022/04/28 07:23:23;;;;;;;15.82;11.63;;;;;;;12.37;100.00;100821.16;5110813;28;20431;-71
2022/04/28 07:25:49;;;;;;;15.77;12.40;;;;;;;12.47;100.00;100845.41;5110621;28;20110;-71
2022/04/28 07:28:15;;;;;;;18.80;12.60;;;;;;;12.44;100.00;100834.91;5092504;28;20026;-71
2022/04/28 07:30:40;;;;;;;17.17;13.20;;;;;;;12.30;100.00;100816.44;5110568;28;20027;-71
2022/04/28 07:33:08;;;;;;;16.65;12.75;;;;;;;12.48;100.00;100847.97;5110614;28;20028;-70
2022/04/28 07:35:34;;;;;;;14.50;11.60;;;;;;;12.56;100.00;100855.38;5091978;28;20112;-70
2022/04/28 07:37:59;;;;;;;14.70;12.38;;;;;;;12.49;100.00;100848.84;5110442;28;20063;-71
2022/04/28 07:40:26;;;;;;;18.05;12.75;;;;;;;12.60;100.00;100862.19;5110278;28;20490;-71
2022/04/28 07:42:52;;;;;;;17.48;13.02;;;;;;;12.60;100.00;100856.81;5110431;28;20027;-71
2022/04/28 07:45:18;;;;;;;19.67;13.05;;;;;;;12.54;100.00;100849.28;5110355;28;20106;-71
2022/04/28 07:47:43;;;;;;;17.52;12.40;;;;;;;12.55;100.00;100848.31;5110145;28;20120;-70
2022/04/28 07:50:10;;;;;;;16.23;12.18;;;;;;;12.68;100.00;100865.06;5110208;28;20555;-71
2022/04/28 07:52:37;;;;;;;16.33;12.30;;;;;;;12.66;100.00;100862.50;5110247;28;20042;-70
2022/04/28 07:55:03;;;;;;;21.85;13.05;;;;;;;12.67;100.00;100861.53;5110473;28;20101;-70
2022/04/28 07:57:28;;;;;;;17.63;13.13;;;;;;;12.58;100.00;100848.03;5109963;28;20504;-70
2022/04/28 07:59:54;;;;;;;19.40;12.18;;;;;;;12.62;100.00;100858.41;5110013;28;20050;-71
2022/04/28 08:02:19;;;;;;;18.10;12.20;;;;;;;12.64;100.00;100852.88;5109663;28;20019;-71
2022/04/28 08:04:44;;;;;;;21.25;12.63;;;;;;;12.69;100.00;100864.94;5110007;28;20061;-70
2022/04/28 08:07:10;;;;;;;16.38;12.13;;;;;;;12.71;100.00;100875.56;5109772;28;20408;-70
2022/04/28 08:09:35;;;;;;;16.55;11.20;;;;;;;12.61;100.00;100861.22;5110082;28;20024;-70
2022/04/28 08:12:01;;;;;;;14.57;11.10;;;;;;;12.70;100.00;100877.41;5109982;28;20027;-70
2022/04/28 08:14:26;;;;;;;16.95;12.50;;;;;;;12.73;100.00;100877.13;5110015;28;20027;-69
2022/04/28 08:16:52;;;;;;;16.85;11.82;;;;;;;12.74;100.00;100878.00;5110155;28;20488;-69
2022/04/28 08:19:19;;;;;;;19.17;12.80;;;;;;;12.76;100.00;100871.47;5091349;28;20263;-70
2022/04/28 08:21:45;;;;;;;17.33;11.95;;;;;;;12.87;100.00;100882.16;5109648;28;20039;-71
2022/04/28 08:24:11;;;;;;;15.30;11.73;;;;;;;12.88;100.00;100880.31;5107469;28;20016;-71
2022/04/28 08:26:36;;;;;;;16.83;12.30;;;;;;;12.96;100.00;100885.88;5091173;28;20035;-70
2022/04/28 08:29:02;;;;;;;14.10;11.20;;;;;;;12.99;100.00;100886.47;5109595;28;20031;-71
2022/04/28 08:31:27;;;;;;;12.77;10.95;;;;;;;12.98;100.00;100886.59;5109495;28;20098;-70
2022/04/28 08:33:53;;;;;;;16.13;12.02;;;;;;;12.98;100.00;100895.53;5109855;28;20742;-70
2022/04/28 08:36:18;;;;;;;15.05;10.55;;;;;;;12.95;100.00;100885.03;5109663;28;20192;-71
2022/04/28 08:38:44;;;;;;;12.65;10.55;;;;;;;13.07;100.00;100894.75;5091072;28;20027;-71
2022/04/28 08:41:13;;;;;;;16.58;11.63;;;;;;;13.11;100.00;100890.78;5109597;28;20403;-71
2022/04/28 08:43:40;;;;;;;12.95;10.63;;;;;;;13.11;100.00;100890.78;5109576;28;20032;-70
2022/04/28 08:48:56;;;;;;;13.63;11.23;;;;;;;13.28;99.73;100897.34;5109426;28;20097;-70
2022/04/28 08:51:25;;;;;;;16.35;10.70;;;;;;;13.44;98.00;100901.22;5109131;28;20019;-69
2022/04/28 08:53:51;;;;;;;15.43;10.93;;;;;;;13.40;98.83;100902.50;5109597;28;20016;-69
2022/04/28 08:56:18;;;;;;;14.27;10.00;;;;;;;13.46;97.82;100896.56;5109262;28;20088;-70
2022/04/28 08:58:44;;;;;;;14.98;11.02;;;;;;;13.51;98.15;100894.28;5109454;28;20063;-70
2022/04/28 09:01:09;;;;;;;12.30;10.38;;;;;;;13.56;98.61;100893.88;5109420;28;20439;-70
2022/04/28 09:03:35;;;;;;;13.30;10.27;;;;;;;13.63;98.36;100898.56;5109018;28;20032;-70
2022/04/28 09:06:22;;;;;;;14.63;10.80;;;;;;;13.62;97.24;100896.88;5109497;28;20035;-68
2022/04/28 09:08:49;;;;;;;13.10;10.75;;;;;;;13.69;95.69;100894.44;5109081;28;20020;-70
2022/04/28 09:11:23;;;;;;;13.25;10.18;;;;;;;13.70;95.33;100898.84;5109211;28;20051;-70
2022/04/28 09:14:09;;;;;;;12.35;9.80;;;;;;;13.88;94.56;100902.56;5090774;28;20051;-70
2022/04/28 09:16:45;;;;;;;13.50;9.85;;;;;;;13.91;94.97;100885.22;5108795;28;20518;-70
2022/04/28 09:19:13;;;;;;;14.45;10.32;;;;;;;14.02;94.17;100909.38;5090833;28;20020;-70
2022/04/28 09:21:40;;;;;;;12.23;9.05;;;;;;;14.08;93.36;100898.84;5113017;28;20066;-69
2022/04/28 09:24:06;;;;;;;11.45;9.45;;;;;;;14.16;92.86;100901.72;5113200;28;20035;-70
2022/04/28 09:26:33;;;;;;;14.20;10.10;;;;;;;14.19;92.45;100897.88;5112974;28;20023;-70
2022/04/28 09:29:02;;;;;;;12.80;8.93;;;;;;;14.27;90.08;100898.00;5094730;28;20031;-70
2022/04/28 09:31:35;;;;;;;17.60;10.15;;;;;;;14.41;90.39;100893.00;5112859;28;20031;-70
2022/04/28 09:34:08;;;;;;;13.85;9.27;;;;;;;14.52;90.45;100892.00;5112713;28;20027;-69
2022/04/28 09:36:36;;;;;;;10.50;9.25;;;;;;;14.73;90.58;100906.16;5094526;28;20049;-69
2022/04/28 09:39:03;;;;;;;12.20;9.73;;;;;;;14.87;90.54;100909.22;5112709;28;20074;-70
2022/04/28 09:44:13;;;;;;;11.52;9.27;;;;;;;15.03;87.20;100904.03;5112867;28;20030;-65
2022/04/28 09:46:43;;;;;;;11.32;8.00;;;;;;;15.10;87.37;100897.06;5112715;28;20479;-65
2022/04/28 09:49:14;;;;;;;12.07;8.80;;;;;;;15.36;81.04;100911.63;5112519;28;20047;-66
2022/04/28 09:51:43;;;;;;;12.20;9.57;;;;;;;15.35;82.70;100903.63;5112675;28;20031;-65
2022/04/28 09:54:14;;;;;;;11.32;9.32;;;;;;;15.41;83.05;100917.41;5112550;28;20042;-65
2022/04/28 09:56:42;;;;;;;10.68;9.00;;;;;;;15.40;82.41;100913.00;5094037;28;20072;-66
2022/04/28 09:59:09;;;;;;;11.80;9.27;;;;;;;15.29;81.85;100894.25;5112579;28;20035;-66
2022/04/28 10:01:37;;;;;;;11.55;8.82;;;;;;;15.28;80.98;100897.09;5093928;28;20039;-64
2022/04/28 10:04:07;;;;;;;10.10;8.85;;;;;;;15.37;81.42;100913.31;5112372;28;20030;-66
2022/04/28 10:06:36;;;;;;;11.57;9.02;;;;;;;15.38;81.63;100906.06;5112284;28;20480;-65
2022/04/28 10:09:17;;;;;;;13.70;9.18;;;;;;;15.35;81.35;100893.63;5112342;28;20373;-66
2022/04/28 10:11:43;;;;;;;9.85;7.85;;;;;;;15.43;81.91;100888.38;5110555;28;20118;-65
2022/04/28 10:14:11;;;;;;;10.18;8.18;;;;;;;15.52;81.98;100892.88;5112617;28;20039;-66
2022/04/28 10:16:38;;;;;;;14.02;8.57;;;;;;;15.72;82.16;100904.41;5111932;28;20089;-65
2022/04/28 10:19:10;;;;;;;10.63;8.80;;;;;;;15.84;81.43;100892.34;5093703;28;20597;-65
2022/04/28 10:21:43;;;;;;;10.63;8.73;;;;;;;15.94;79.32;100895.84;5112139;28;20031;-66
2022/04/28 10:32:57;;;;;;;8.90;7.90;;;;;;;16.50;71.51;100876.50;5111838;28;20089;-65
2022/04/28 10:35:36;;;;;;;8.50;6.78;;;;;;;16.76;73.12;100888.19;5092827;28;20050;-66
2022/04/28 10:38:26;;;;;;;9.90;8.48;;;;;;;16.85;74.48;100876.41;5111768;28;20027;-66
2022/04/28 10:41:05;;;;;;;11.38;7.45;;;;;;;16.89;71.73;100884.03;5093323;28;20040;-65
2022/04/28 10:43:34;;;;;;;9.25;7.90;;;;;;;16.93;71.99;100890.84;5111466;28;20535;-66
2022/04/28 10:46:08;;;;;;;12.63;7.90;;;;;;;16.89;70.56;100900.31;5111624;28;20135;-67
2022/04/28 10:48:45;;;;;;;9.57;7.43;;;;;;;16.87;69.75;100896.91;5111328;28;20020;-66
2022/04/28 10:51:15;;;;;;;9.40;7.65;;;;;;;16.84;70.08;100896.38;5111422;28;20435;-65
2022/04/28 10:54:09;;;;;;;10.55;8.32;;;;;;;16.84;69.31;100904.50;5093175;28;20057;-65
2022/04/28 10:56:54;;;;;;;9.38;7.13;;;;;;;16.85;69.15;100904.34;5111427;28;20070;-66
2022/04/28 10:59:26;;;;;;;11.10;7.80;;;;;;;16.97;67.66;100894.09;5111131;28;20479;-65
2022/04/28 11:01:52;;;;;;;10.23;7.32;;;;;;;16.99;69.86;100900.22;5111181;28;20108;-66
2022/04/28 11:04:23;;;;;;;11.02;7.85;;;;;;;17.02;70.26;100899.84;5111324;28;20056;-66
2022/04/28 11:06:56;;;;;;;9.48;7.80;;;;;;;17.04;70.35;100903.25;5111197;28;20035;-65
2022/04/28 11:09:31;;;;;;;11.23;8.37;;;;;;;17.13;70.20;100899.59;5108512;28;20063;-66
2022/04/28 11:12:11;;;;;;;7.63;6.38;;;;;;;17.21;70.37;100886.91;5111006;28;20260;-66
2022/04/28 11:15:02;;;;;;;9.18;7.95;;;;;;;17.34;69.38;100886.44;5111137;28;20106;-66
2022/04/28 11:17:30;;;;;;;10.80;7.57;;;;;;;17.32;69.55;100880.34;5111006;28;20036;-66
2022/04/28 11:19:56;;;;;;;10.25;7.10;;;;;;;17.41;68.50;100893.75;5110904;28;20030;-65
2022/04/28 11:22:21;;;;;;;9.68;7.25;;;;;;;17.38;66.00;100885.94;5110719;28;20027;-66
2022/04/28 11:24:49;;;;;;;8.43;6.82;;;;;;;17.41;65.93;100884.78;5092971;28;20128;-65
2022/04/28 11:27:23;;;;;;;8.93;6.40;;;;;;;17.61;66.68;100891.66;5111037;28;20032;-65
2022/04/28 11:29:50;;;;;;;8.68;6.75;;;;;;;17.55;65.63;100889.59;5110889;28;20037;-65
2022/04/28 11:32:17;;;;;;;8.23;6.20;;;;;;;17.61;64.75;100897.91;5110831;28;20027;-66
2022/04/28 11:34:44;;;;;;;9.02;5.90;;;;;;;17.63;65.68;100889.63;5110238;28;20110;-65
2022/04/28 11:37:24;;;;;;;6.95;6.10;;;;;;;17.69;65.25;100899.81;5110457;28;20050;-65
2022/04/28 11:39:53;;;;;;;7.28;6.38;;;;;;;17.70;62.43;100888.78;5110456;28;20032;-64